Burksville, Illinois
Current Conditions -  °F | °C
As of 8:53 PM on Monday 22 Dec 2014 (Local Time) from KCPS Reporting Station
Light Rain Light Rain  
Wind Chill: 51°   Ceiling: 5500
Heat Index: 51°   Visibility: 6mi
Dew Point: 49°   Wind: 6mph
Humidity: 92%   Direction: 170°S
Pressure: 29.54"   Gusts: NA
Location:  38.3034°N, 90.1358°W
Report Text: KCPS 230253Z 17005KT 6SM -RA BR FEW030 SCT041 OVC055 11/09 A2954 RMK AO2 SLP004 P0006 60006 T01060094 55003
Loading
Personal Weather Stations






























Interactive Weather Map New forecast layout! Learn more

10-Day Weather Forecast

Advertisements
Track Severe Weather on mobile